Time;durP1;ratioP1;P1;durP2;ratioP2;P2;SDS_P1;SDS_P2;PMS_P1;PMS_P2;Temp;Humidity;BMP_temperature;BMP_pressure;BME280_temperature;BME280_humidity;BME280_pressure;Samples;Min_cycle;Max_cycle;Signal;HPM_P1;HPM_P2
2022/07/01 00:00:18;;;;;;;3.67;0.90;;;15.20;99.90;;;;;;5041285;28;20128;-69
2022/07/01 00:02:44;;;;;;;2.50;0.77;;;15.20;99.90;;;;;;5075778;28;20036;-70
2022/07/01 00:05:09;;;;;;;3.10;0.98;;;15.20;99.90;;;;;;5055676;28;20498;-69
2022/07/01 00:07:35;;;;;;;2.60;1.00;;;15.20;99.90;;;;;;5057688;28;20037;-68
2022/07/01 00:10:01;;;;;;;3.10;0.95;;;15.20;99.90;;;;;;5041059;28;20044;-69
2022/07/01 00:12:27;;;;;;;3.67;1.38;;;15.20;99.90;;;;;;5057505;28;20469;-69
2022/07/01 00:14:53;;;;;;;4.25;1.65;;;15.20;99.90;;;;;;5057667;28;20055;-69
2022/07/01 00:17:19;;;;;;;2.63;1.63;;;15.20;99.90;;;;;;5057563;28;20143;-69
2022/07/01 00:19:45;;;;;;;4.65;1.83;;;15.20;99.90;;;;;;5057811;28;20071;-68
2022/07/01 00:22:10;;;;;;;3.75;1.65;;;15.20;99.90;;;;;;5056416;28;20047;-69
2022/07/01 00:24:36;;;;;;;3.25;1.60;;;15.20;99.90;;;;;;5075547;28;20052;-69
2022/07/01 00:27:02;;;;;;;2.83;1.58;;;15.20;99.90;;;;;;5075463;28;20094;-69
2022/07/01 00:29:32;;;;;;;3.72;1.27;;;15.20;99.90;;;;;;5057597;28;20043;-69
2022/07/01 00:31:58;;;;;;;2.80;1.40;;;15.20;99.90;;;;;;5057226;28;20048;-69
2022/07/01 00:34:24;;;;;;;3.78;1.52;;;15.20;99.90;;;;;;5056306;28;20048;-69
2022/07/01 00:36:50;;;;;;;4.97;1.80;;;15.20;99.90;;;;;;5056326;28;20036;-68
2022/07/01 00:39:16;;;;;;;3.53;1.75;;;15.20;99.90;;;;;;5075121;28;20080;-69
2022/07/01 00:41:42;;;;;;;2.78;1.63;;;15.20;99.90;;;;;;5040908;28;20048;-69
2022/07/01 00:44:20;;;;;;;2.83;1.40;;;15.20;99.90;;;;;;5040275;28;20621;-69
2022/07/01 00:46:51;;;;;;;3.50;1.55;;;15.20;99.90;;;;;;5057141;28;20362;-69
2022/07/01 00:49:17;;;;;;;6.57;2.47;;;15.20;99.90;;;;;;5074005;28;20091;-69
2022/07/01 00:51:43;;;;;;;4.75;1.95;;;15.20;99.90;;;;;;5095261;28;20055;-69
2022/07/01 00:54:10;;;;;;;2.17;1.63;;;15.20;99.90;;;;;;5097108;28;20095;-69
2022/07/01 00:56:36;;;;;;;2.00;1.40;;;15.30;99.90;;;;;;5097522;28;20035;-69
2022/07/01 00:59:02;;;;;;;4.15;2.20;;;15.20;99.90;;;;;;5097118;28;20468;-69
2022/07/01 01:01:28;;;;;;;4.35;1.70;;;15.20;99.90;;;;;;5097007;28;20040;-69
2022/07/01 01:03:54;;;;;;;3.00;1.60;;;15.20;99.90;;;;;;5115300;28;20047;-69
2022/07/01 01:06:20;;;;;;;2.65;1.80;;;15.20;99.90;;;;;;5077952;28;20075;-70
2022/07/01 01:08:46;;;;;;;3.13;2.00;;;15.10;99.90;;;;;;5096810;28;20051;-69
2022/07/01 01:11:13;;;;;;;8.57;2.15;;;15.10;99.90;;;;;;5115213;28;20031;-69
2022/07/01 01:13:39;;;;;;;3.95;2.28;;;15.10;99.90;;;;;;5115020;28;20192;-69
2022/07/01 01:16:05;;;;;;;5.57;2.70;;;15.10;99.90;;;;;;5096721;28;20511;-69
2022/07/01 01:18:31;;;;;;;4.55;2.30;;;15.10;99.90;;;;;;5115160;28;20043;-69
2022/07/01 01:20:57;;;;;;;3.03;2.40;;;15.10;99.90;;;;;;5096680;28;20169;-69
2022/07/01 01:23:22;;;;;;;4.90;2.00;;;15.00;99.90;;;;;;5079989;28;20059;-69
2022/07/01 01:25:48;;;;;;;4.28;2.10;;;15.00;99.90;;;;;;5096663;28;20558;-69
2022/07/01 01:28:14;;;;;;;6.13;3.05;;;15.00;99.90;;;;;;5096525;28;20047;-69
2022/07/01 01:30:40;;;;;;;8.73;2.97;;;15.00;99.90;;;;;;5114570;28;20122;-69
2022/07/01 01:33:11;;;;;;;5.88;3.50;;;15.00;99.90;;;;;;5096151;28;20126;-68
2022/07/01 01:35:38;;;;;;;8.63;2.67;;;15.00;99.90;;;;;;5094336;28;20485;-69
2022/07/01 01:38:03;;;;;;;6.18;2.78;;;15.00;99.90;;;;;;5096222;28;20172;-68
2022/07/01 01:40:29;;;;;;;5.57;3.30;;;15.00;99.90;;;;;;5096287;28;20119;-69
2022/07/01 01:42:55;;;;;;;6.43;2.90;;;15.00;99.90;;;;;;5079159;28;20061;-69
2022/07/01 01:45:21;;;;;;;3.70;3.08;;;14.90;99.90;;;;;;5096395;28;20040;-68
2022/07/01 01:47:47;;;;;;;4.85;2.92;;;14.90;99.90;;;;;;5114175;28;20043;-69
2022/07/01 01:50:15;;;;;;;5.15;3.10;;;14.90;99.90;;;;;;5114131;28;20073;-68
2022/07/01 01:52:43;;;;;;;6.85;3.58;;;14.90;99.90;;;;;;5113532;28;20055;-69
2022/07/01 01:55:09;;;;;;;6.20;3.88;;;14.80;99.90;;;;;;5096025;28;20118;-68
2022/07/01 01:57:35;;;;;;;6.70;4.15;;;14.80;99.90;;;;;;5096213;28;20035;-68
2022/07/01 02:00:01;;;;;;;8.88;5.28;;;14.80;99.90;;;;;;5095723;28;20053;-68
2022/07/01 02:02:27;;;;;;;7.45;4.65;;;14.80;99.90;;;;;;5096130;28;20031;-68
2022/07/01 02:04:53;;;;;;;7.82;4.70;;;14.80;99.90;;;;;;5111922;28;20186;-68
2022/07/01 02:07:19;;;;;;;8.48;4.75;;;14.70;99.90;;;;;;5114120;28;20082;-68
2022/07/01 02:09:45;;;;;;;9.05;6.70;;;14.70;99.90;;;;;;5095832;28;20079;-68
2022/07/01 02:12:11;;;;;;;10.63;8.63;;;14.70;99.90;;;;;;5109782;28;20032;-69
2022/07/01 02:14:36;;;;;;;12.07;10.18;;;14.70;99.90;;;;;;5095841;28;20046;-68
2022/07/01 02:17:03;;;;;;;14.25;10.68;;;14.70;99.90;;;;;;5095633;28;20552;-68
2022/07/01 02:19:28;;;;;;;16.65;11.20;;;14.70;99.90;;;;;;5113689;28;20036;-68
2022/07/01 02:21:54;;;;;;;12.60;8.75;;;14.70;99.90;;;;;;5095764;28;20039;-68
2022/07/01 02:24:21;;;;;;;11.65;9.07;;;14.70;99.90;;;;;;5113503;28;20388;-68
2022/07/01 02:26:47;;;;;;;12.90;9.18;;;14.70;99.90;;;;;;5095432;28;20051;-69
2022/07/01 02:29:14;;;;;;;13.50;9.50;;;14.70;99.90;;;;;;5113429;28;20058;-68
2022/07/01 02:31:40;;;;;;;14.00;9.23;;;14.80;99.90;;;;;;5078393;28;20051;-68
2022/07/01 02:34:05;;;;;;;11.02;8.55;;;14.70;99.90;;;;;;5113752;28;20044;-69
2022/07/01 02:36:31;;;;;;;13.15;7.85;;;14.70;99.90;;;;;;5093191;28;20058;-68
2022/07/01 02:38:57;;;;;;;9.93;6.72;;;14.70;99.90;;;;;;5113717;28;20042;-69
2022/07/01 02:41:23;;;;;;;12.63;7.25;;;14.70;99.90;;;;;;5113461;28;20035;-69
2022/07/01 02:43:48;;;;;;;9.77;5.95;;;14.70;99.90;;;;;;5113400;28;20062;-69
2022/07/01 02:46:14;;;;;;;8.57;5.75;;;14.70;99.90;;;;;;5094974;28;20050;-68
2022/07/01 02:48:40;;;;;;;7.55;4.15;;;14.60;99.90;;;;;;5094998;28;20087;-69
2022/07/01 03:03:04;;;;;;;10.70;5.60;;;14.60;99.90;;;;;;5129466;27;20806;-65
2022/07/01 03:05:30;;;;;;;10.18;6.10;;;14.80;99.90;;;;;;5099203;28;20143;-66
2022/07/01 03:07:57;;;;;;;5.57;4.03;;;14.70;99.90;;;;;;5109102;28;20040;-66
2022/07/01 03:10:23;;;;;;;6.93;4.40;;;14.70;99.90;;;;;;5109209;28;20097;-65
2022/07/01 03:12:59;;;;;;;6.72;4.85;;;14.70;99.90;;;;;;5102553;28;20044;-65
2022/07/01 03:15:28;;;;;;;8.48;5.32;;;14.60;99.90;;;;;;5084520;28;20040;-65
2022/07/01 03:18:00;;;;;;;8.27;5.57;;;14.60;99.90;;;;;;5075249;28;20093;-64
2022/07/01 03:20:35;;;;;;;7.32;5.20;;;14.60;99.90;;;;;;5074931;28;20048;-65
2022/07/01 03:23:06;;;;;;;8.88;6.22;;;14.60;99.90;;;;;;5110146;28;20036;-65
2022/07/01 03:25:38;;;;;;;9.85;6.47;;;14.60;99.90;;;;;;5091654;28;20044;-65
2022/07/01 03:28:04;;;;;;;9.55;7.72;;;14.60;99.90;;;;;;5085214;28;20039;-65
2022/07/01 03:30:40;;;;;;;13.10;8.63;;;14.60;99.90;;;;;;5091460;28;20565;-65
2022/07/01 03:33:09;;;;;;;16.15;9.80;;;14.50;99.90;;;;;;5089601;28;20101;-65
2022/07/01 03:35:51;;;;;;;16.20;10.30;;;14.50;99.90;;;;;;5091755;28;20031;-65
2022/07/01 03:38:20;;;;;;;20.52;12.27;;;14.50;99.90;;;;;;5109347;28;20055;-65
2022/07/01 03:40:46;;;;;;;18.70;11.90;;;14.50;99.90;;;;;;5091314;28;20132;-64
2022/07/01 03:43:34;;;;;;;19.88;12.23;;;14.40;99.90;;;;;;5109627;28;20043;-65
2022/07/01 03:46:06;;;;;;;20.77;13.75;;;14.40;99.90;;;;;;5091723;28;20418;-64
2022/07/01 03:48:33;;;;;;;27.15;17.17;;;14.40;99.90;;;;;;5090185;28;20501;-65
2022/07/01 03:51:06;;;;;;;32.90;19.60;;;14.40;99.90;;;;;;5109395;28;20097;-64
2022/07/01 03:56:38;;;;;;;39.20;20.08;;;14.30;99.90;;;;;;5091315;28;20040;-64
2022/07/01 03:59:07;;;;;;;35.20;20.23;;;14.40;99.90;;;;;;5091218;28;20519;-66
2022/07/01 04:01:38;;;;;;;35.63;20.90;;;14.40;99.90;;;;;;5090891;28;20052;-65
2022/07/01 04:04:16;;;;;;;39.65;23.00;;;14.40;99.90;;;;;;5058013;28;20055;-65
2022/07/01 04:06:48;;;;;;;49.03;25.20;;;14.40;99.90;;;;;;5077560;28;20519;-65
2022/07/01 04:09:20;;;;;;;39.05;23.65;;;14.30;99.90;;;;;;5094261;28;20052;-66
2022/07/01 04:11:53;;;;;;;41.85;23.98;;;14.30;99.90;;;;;;5094333;28;20048;-66
2022/07/01 04:14:26;;;;;;;37.47;22.30;;;14.30;99.90;;;;;;5095481;28;20043;-65
2022/07/01 04:17:02;;;;;;;44.45;25.20;;;14.30;99.90;;;;;;5071377;28;20036;-65
2022/07/01 04:19:31;;;;;;;36.47;23.23;;;14.30;99.90;;;;;;5075826;28;20378;-67
2022/07/01 04:24:47;;;;;;;38.92;24.45;;;14.40;99.90;;;;;;5095298;28;20059;-67
2022/07/01 04:27:23;;;;;;;43.08;24.92;;;14.40;99.90;;;;;;5077285;28;20036;-64
2022/07/01 04:29:49;;;;;;;39.35;24.63;;;14.40;99.90;;;;;;5077412;28;20523;-65
2022/07/01 04:32:15;;;;;;;48.60;28.08;;;14.30;99.90;;;;;;5076631;28;20079;-65
2022/07/01 04:34:47;;;;;;;48.20;28.08;;;14.30;99.90;;;;;;5092854;28;20040;-64
2022/07/01 04:37:13;;;;;;;47.70;27.15;;;14.30;99.90;;;;;;5076791;28;20042;-66
2022/07/01 04:39:43;;;;;;;45.90;27.70;;;14.30;99.90;;;;;;5060171;28;20606;-64
2022/07/01 04:42:20;;;;;;;53.67;29.95;;;14.30;99.90;;;;;;5077069;28;20043;-64
2022/07/01 04:44:49;;;;;;;51.38;28.73;;;14.30;99.90;;;;;;5077068;28;20044;-65
2022/07/01 04:47:32;;;;;;;52.45;30.05;;;14.40;99.90;;;;;;5077012;28;20059;-64
2022/07/01 04:50:01;;;;;;;50.85;29.17;;;14.40;99.90;;;;;;5077116;28;20036;-64
2022/07/01 04:52:39;;;;;;;54.53;31.25;;;14.40;99.90;;;;;;5078336;28;20048;-64
2022/07/01 04:55:08;;;;;;;47.95;28.77;;;14.40;99.90;;;;;;5094634;28;20035;-64
2022/07/01 04:57:34;;;;;;;56.90;31.92;;;14.40;99.90;;;;;;5076874;28;20046;-63
2022/07/01 05:00:10;;;;;;;50.90;29.33;;;14.50;99.90;;;;;;5059498;28;20639;-65
2022/07/01 05:02:40;;;;;;;48.78;28.85;;;14.40;99.90;;;;;;5076054;28;20413;-69
2022/07/01 05:05:09;;;;;;;50.30;31.40;;;14.40;99.90;;;;;;5091511;28;20051;-64
2022/07/01 05:07:44;;;;;;;53.13;31.05;;;14.40;99.90;;;;;;5094386;28;20051;-65
2022/07/01 05:10:13;;;;;;;46.65;29.27;;;14.50;99.90;;;;;;5059870;28;20044;-66
2022/07/01 05:12:48;;;;;;;52.67;31.15;;;14.50;99.90;;;;;;5090295;28;20040;-64
2022/07/01 05:15:20;;;;;;;46.95;29.13;;;14.50;99.90;;;;;;5075173;28;20523;-64
2022/07/01 05:23:24;;;;;;;50.70;29.50;;;14.40;99.90;;;;;;5076107;28;20048;-66
2022/07/01 05:26:00;;;;;;;47.78;30.58;;;14.50;99.90;;;;;;5091451;28;20036;-65
2022/07/01 05:28:26;;;;;;;50.40;30.70;;;14.40;99.90;;;;;;5075885;28;20097;-66
2022/07/01 05:30:55;;;;;;;47.45;28.83;;;14.50;99.90;;;;;;5071220;28;20032;-67
2022/07/01 05:33:26;;;;;;;46.25;29.42;;;14.50;99.90;;;;;;5073570;28;20131;-66
2022/07/01 05:35:53;;;;;;;41.10;28.77;;;14.50;99.90;;;;;;5076133;28;20036;-66
2022/07/01 05:38:19;;;;;;;44.97;29.55;;;14.50;99.90;;;;;;5075982;28;20426;-66
2022/07/01 05:40:52;;;;;;;44.70;28.65;;;14.60;99.90;;;;;;5075945;28;20044;-66
2022/07/01 05:43:21;;;;;;;39.75;28.05;;;14.60;99.90;;;;;;5093794;28;20077;-66
2022/07/01 05:45:56;;;;;;;44.22;29.60;;;14.60;99.90;;;;;;5093761;28;20047;-65
2022/07/01 05:48:31;;;;;;;45.63;29.05;;;14.60;99.90;;;;;;5093602;28;20089;-67
2022/07/01 05:51:00;;;;;;;42.53;29.00;;;14.60;99.90;;;;;;5093603;28;20627;-67
2022/07/01 05:53:29;;;;;;;46.40;29.33;;;14.60;99.90;;;;;;5075360;28;20040;-67
2022/07/01 05:55:59;;;;;;;46.15;29.10;;;14.60;99.90;;;;;;5075752;28;20032;-66
2022/07/01 05:58:27;;;;;;;43.70;28.48;;;14.60;99.90;;;;;;5093865;28;20036;-66
2022/07/01 06:00:53;;;;;;;42.28;28.05;;;14.60;99.90;;;;;;5092989;28;20060;-65
2022/07/01 06:03:19;;;;;;;42.05;27.58;;;14.60;99.90;;;;;;5092177;28;20223;-66
2022/07/01 06:05:45;;;;;;;41.55;27.27;;;14.70;99.90;;;;;;5094373;28;20397;-66
2022/07/01 06:08:11;;;;;;;39.05;25.70;;;14.70;99.90;;;;;;5075172;28;20040;-65
2022/07/01 06:10:37;;;;;;;36.63;24.92;;;14.70;99.90;;;;;;5093265;28;20040;-68
2022/07/01 06:13:04;;;;;;;35.55;24.25;;;14.70;99.90;;;;;;5071633;28;20535;-71
2022/07/01 06:15:30;;;;;;;38.72;25.13;;;14.70;99.90;;;;;;5038599;28;20036;-66
2022/07/01 06:17:57;;;;;;;33.58;24.20;;;14.70;99.90;;;;;;5055211;28;20444;-67
2022/07/01 06:20:23;;;;;;;33.92;23.20;;;14.70;99.90;;;;;;5055063;28;20036;-66
2022/07/01 06:22:49;;;;;;;36.63;23.17;;;14.70;99.90;;;;;;5055030;28;20458;-66
2022/07/01 06:25:15;;;;;;;32.92;23.35;;;14.70;99.90;;;;;;5071270;28;20051;-67
2022/07/01 06:27:42;;;;;;;36.95;22.95;;;14.70;99.90;;;;;;5072767;28;20434;-67
2022/07/01 06:30:10;;;;;;;32.97;21.25;;;14.70;99.90;;;;;;5038420;28;20672;-68
2022/07/01 06:32:37;;;;;;;30.95;22.75;;;14.80;99.90;;;;;;5072945;28;20397;-68
2022/07/01 06:35:03;;;;;;;31.05;22.67;;;14.80;99.90;;;;;;5052509;28;20094;-67
2022/07/01 06:37:32;;;;;;;32.17;23.38;;;14.80;99.90;;;;;;5071474;28;20036;-67
2022/07/01 06:39:58;;;;;;;29.93;22.07;;;14.90;99.90;;;;;;5054031;28;20355;-69
2022/07/01 06:42:24;;;;;;;31.20;22.05;;;14.80;99.90;;;;;;5073669;28;20097;-67
2022/07/01 06:44:50;;;;;;;32.05;23.08;;;14.90;99.90;;;;;;5092919;28;20115;-70
2022/07/01 06:47:16;;;;;;;31.30;21.50;;;14.90;99.90;;;;;;5074847;28;20032;-69
2022/07/01 06:49:43;;;;;;;30.92;22.98;;;14.90;99.90;;;;;;5092562;28;20504;-66
2022/07/01 06:52:09;;;;;;;32.63;22.50;;;14.90;99.90;;;;;;5074577;28;20040;-67
2022/07/01 06:54:37;;;;;;;28.10;22.33;;;15.00;99.90;;;;;;5092496;28;20088;-65
2022/07/01 06:57:04;;;;;;;31.77;22.45;;;15.10;99.90;;;;;;5092983;28;20061;-66
2022/07/01 06:59:30;;;;;;;29.60;21.23;;;15.20;99.90;;;;;;5071422;28;20109;-66
2022/07/01 07:01:56;;;;;;;30.80;22.77;;;15.20;99.90;;;;;;5072326;28;20111;-70
2022/07/01 07:04:22;;;;;;;27.17;21.27;;;15.30;99.90;;;;;;5062958;28;20079;-68
2022/07/01 07:06:48;;;;;;;27.98;21.35;;;15.40;99.90;;;;;;5074632;28;20386;-66
2022/07/01 07:09:13;;;;;;;26.73;19.75;;;15.40;99.90;;;;;;5057949;28;20047;-69
2022/07/01 07:11:39;;;;;;;28.35;22.17;;;15.40;99.90;;;;;;5092905;28;20492;-68
2022/07/01 07:14:05;;;;;;;24.58;20.50;;;15.40;99.90;;;;;;5074456;28;20489;-67
2022/07/01 07:16:31;;;;;;;28.60;22.02;;;15.50;99.90;;;;;;5057804;28;20123;-70
2022/07/01 07:18:57;;;;;;;24.77;20.25;;;15.50;99.90;;;;;;5074679;28;20036;-69
2022/07/01 07:21:22;;;;;;;28.83;20.90;;;15.60;99.90;;;;;;5074330;28;20433;-69
2022/07/01 07:23:48;;;;;;;30.10;21.35;;;15.70;99.90;;;;;;5074552;28;20040;-70
2022/07/01 07:26:14;;;;;;;29.92;20.30;;;15.80;99.90;;;;;;5074321;28;20477;-69
2022/07/01 07:28:40;;;;;;;30.55;21.83;;;15.80;99.90;;;;;;5074302;28;20036;-71
2022/07/01 07:31:06;;;;;;;28.38;23.40;;;15.90;99.90;;;;;;5073562;28;20040;-70
2022/07/01 07:33:32;;;;;;;27.38;20.88;;;16.00;99.90;;;;;;5088110;28;20040;-68
2022/07/01 07:35:57;;;;;;;22.48;19.33;;;16.10;99.90;;;;;;5091799;28;20036;-70
2022/07/01 07:38:23;;;;;;;22.98;20.40;;;16.20;99.90;;;;;;5076112;28;20044;-68
2022/07/01 07:40:49;;;;;;;22.80;18.90;;;16.30;99.90;;;;;;5095556;28;20048;-68
2022/07/01 07:43:15;;;;;;;22.90;17.98;;;16.50;99.90;;;;;;5061118;28;20115;-69
2022/07/01 07:45:41;;;;;;;23.85;18.08;;;16.80;99.90;;;;;;5095740;28;20040;-69
2022/07/01 07:48:08;;;;;;;20.17;16.35;;;17.10;99.90;;;;;;5095889;28;20177;-67
2022/07/01 07:50:34;;;;;;;19.67;16.55;;;17.50;99.90;;;;;;5095737;28;20044;-70
2022/07/01 07:53:00;;;;;;;21.52;17.48;;;17.80;99.90;;;;;;5077861;28;20032;-68
2022/07/01 07:55:27;;;;;;;20.70;17.40;;;18.10;99.90;;;;;;5095462;28;20080;-69
2022/07/01 07:57:54;;;;;;;20.60;15.93;;;18.30;99.90;;;;;;5077521;28;20105;-74
2022/07/01 08:00:19;;;;;;;20.55;15.95;;;18.40;99.90;;;;;;5077037;28;20068;-71
2022/07/01 08:02:46;;;;;;;19.02;15.15;;;18.30;99.90;;;;;;5045249;28;21094;-68
2022/07/01 08:05:12;;;;;;;21.77;16.50;;;18.30;99.90;;;;;;5004868;28;21011;-66
2022/07/01 08:07:40;;;;;;;18.27;15.40;;;18.20;99.90;;;;;;5051124;28;20047;-66
2022/07/01 08:10:08;;;;;;;23.95;15.80;;;18.20;99.90;;;;;;5094913;28;20071;-65
2022/07/01 08:12:34;;;;;;;20.27;16.23;;;18.20;99.90;;;;;;5094821;28;20042;-68
2022/07/01 08:15:00;;;;;;;20.85;17.65;;;18.30;99.90;;;;;;5094826;28;20112;-67
2022/07/01 08:17:26;;;;;;;19.40;15.68;;;18.40;99.90;;;;;;5073635;28;20067;-67
2022/07/01 08:19:52;;;;;;;15.55;13.02;;;18.60;99.90;;;;;;5076655;28;20393;-67
2022/07/01 08:22:19;;;;;;;19.77;14.23;;;18.70;99.90;;;;;;5075988;28;20131;-68
2022/07/01 08:24:45;;;;;;;16.35;13.98;;;18.60;99.90;;;;;;5076188;28;20050;-68
2022/07/01 08:27:12;;;;;;;18.30;15.70;;;18.60;99.90;;;;;;5073911;28;20097;-70
2022/07/01 08:29:39;;;;;;;17.73;12.90;;;18.60;99.90;;;;;;5059437;28;20126;-70
2022/07/01 08:32:05;;;;;;;23.63;15.32;;;18.60;99.90;;;;;;5094202;28;20074;-68
2022/07/01 08:34:31;;;;;;;20.70;13.77;;;18.60;99.90;;;;;;5072747;28;20086;-69
2022/07/01 08:36:57;;;;;;;18.33;12.85;;;18.70;99.90;;;;;;5074764;28;20457;-68
2022/07/01 08:39:23;;;;;;;15.63;12.68;;;18.80;99.90;;;;;;5075996;28;20044;-67
2022/07/01 08:41:49;;;;;;;16.05;12.30;;;18.80;99.90;;;;;;5070306;28;20036;-67
2022/07/01 08:44:15;;;;;;;13.30;10.90;;;18.90;99.90;;;;;;5093964;28;20046;-69
2022/07/01 08:46:41;;;;;;;12.45;9.63;;;19.10;99.90;;;;;;5075725;28;20043;-67
2022/07/01 08:49:07;;;;;;;13.48;11.30;;;19.60;99.90;;;;;;5075215;28;20036;-68
2022/07/01 08:51:33;;;;;;;12.93;9.85;;;20.00;99.90;;;;;;5075684;28;20596;-68
2022/07/01 08:53:59;;;;;;;14.70;11.15;;;20.40;99.90;;;;;;5073941;28;20071;-72
2022/07/01 08:56:45;;;;;;;15.50;10.05;;;20.30;99.90;;;;;;5075911;28;20040;-70
2022/07/01 08:59:25;;;;;;;12.25;8.98;;;20.00;99.90;;;;;;5074993;28;20115;-69
2022/07/01 09:01:56;;;;;;;11.90;8.68;;;19.70;99.90;;;;;;5092511;28;20461;-66
2022/07/01 09:04:22;;;;;;;12.88;8.60;;;19.80;99.90;;;;;;5073277;28;20094;-69
2022/07/01 09:06:49;;;;;;;10.20;8.05;;;19.70;99.90;;;;;;5075737;28;20119;-71
2022/07/01 09:09:19;;;;;;;12.10;7.40;;;19.80;99.90;;;;;;5071965;28;20099;-71
2022/07/01 09:11:54;;;;;;;11.25;8.32;;;19.90;99.90;;;;;;5071683;28;20047;-69
2022/07/01 09:14:25;;;;;;;10.90;8.93;;;20.30;99.90;;;;;;5092063;28;20040;-69
2022/07/01 09:16:57;;;;;;;11.38;7.13;;;20.70;99.90;;;;;;5092920;28;20036;-68
2022/07/01 09:19:26;;;;;;;8.73;7.70;;;20.80;99.90;;;;;;5057538;28;20048;-72
2022/07/01 09:21:57;;;;;;;11.90;9.15;;;20.90;99.90;;;;;;5093362;28;20500;-68
2022/07/01 09:24:28;;;;;;;10.05;6.55;;;20.90;99.90;;;;;;5075102;28;20040;-69
2022/07/01 09:27:16;;;;;;;10.18;9.05;;;20.60;99.90;;;;;;5074444;28;20051;-68
2022/07/01 09:29:52;;;;;;;11.43;8.93;;;20.00;99.90;;;;;;5093240;28;20098;-71
2022/07/01 09:32:21;;;;;;;10.15;8.05;;;19.50;99.90;;;;;;5073718;28;20101;-72
2022/07/01 09:34:52;;;;;;;12.23;9.67;;;19.40;99.90;;;;;;5071468;28;20032;-67
2022/07/01 09:37:23;;;;;;;13.23;8.40;;;19.40;99.90;;;;;;5073325;28;20090;-69
2022/07/01 09:39:50;;;;;;;10.88;7.07;;;19.70;99.90;;;;;;5073696;28;20456;-67
2022/07/01 09:42:18;;;;;;;9.93;7.00;;;20.20;99.90;;;;;;5091283;28;20078;-69
2022/07/01 09:44:59;;;;;;;9.93;5.40;;;20.60;99.90;;;;;;5072989;28;20059;-67
2022/07/01 09:47:26;;;;;;;6.50;4.25;;;20.60;99.90;;;;;;5073983;28;20117;-67
2022/07/01 09:49:54;;;;;;;4.53;3.30;;;20.60;99.90;;;;;;5092914;28;20447;-67
2022/07/01 09:52:22;;;;;;;11.30;4.68;;;20.80;99.90;;;;;;5093006;28;20114;-67
2022/07/01 09:54:49;;;;;;;7.53;3.22;;;21.20;99.90;;;;;;5093532;28;20040;-67
2022/07/01 09:57:16;;;;;;;8.20;3.08;;;21.50;99.90;;;;;;5093211;28;20067;-68
2022/07/01 09:59:42;;;;;;;6.85;3.03;;;21.70;99.90;;;;;;5074626;28;20097;-67
2022/07/01 10:02:09;;;;;;;4.55;2.60;;;22.00;99.90;;;;;;5054515;28;20067;-69
2022/07/01 10:04:53;;;;;;;6.82;2.88;;;22.20;99.90;;;;;;5063317;28;20063;-69
2022/07/01 10:07:25;;;;;;;5.78;2.35;;;22.50;99.90;;;;;;5066745;28;20119;-65
2022/07/01 10:10:24;;;;;;;6.82;1.80;;;22.50;99.90;;;;;;5072991;28;20045;-66
2022/07/01 10:13:02;;;;;;;2.97;1.65;;;22.40;99.90;;;;;;5035508;28;20053;-66
2022/07/01 10:15:29;;;;;;;4.15;1.60;;;22.50;99.90;;;;;;5069606;28;20046;-70
2022/07/01 10:17:55;;;;;;;6.15;1.80;;;22.80;99.90;;;;;;5071458;28;20048;-67
2022/07/01 10:20:26;;;;;;;5.03;1.58;;;22.70;99.90;;;;;;5067870;28;20066;-69
2022/07/01 10:23:04;;;;;;;5.13;1.63;;;22.50;99.90;;;;;;5052866;28;20422;-68
2022/07/01 10:25:35;;;;;;;4.80;1.55;;;22.50;99.90;;;;;;5051417;28;20041;-66
2022/07/01 10:28:18;;;;;;;5.20;1.40;;;22.40;99.90;;;;;;5052603;28;20127;-66
2022/07/01 10:30:52;;;;;;;5.07;1.10;;;22.30;99.90;;;;;;5052752;28;20136;-66
2022/07/01 10:33:50;;;;;;;5.03;1.23;;;22.10;99.90;;;;;;5050215;28;20060;-67
2022/07/01 10:36:25;;;;;;;5.95;1.25;;;22.10;99.90;;;;;;5038132;28;20047;-66
2022/07/01 10:41:32;;;;;;;4.28;1.30;;;21.70;99.90;;;;;;5051002;28;20624;-65
2022/07/01 10:44:02;;;;;;;5.05;1.05;;;21.30;99.90;;;;;;5051664;28;20049;-64
2022/07/01 10:46:58;;;;;;;4.35;1.70;;;21.20;99.90;;;;;;5051091;28;20075;-65
2022/07/01 10:49:36;;;;;;;6.45;1.23;;;21.10;99.90;;;;;;5051075;28;20475;-68
2022/07/01 10:52:14;;;;;;;3.83;0.90;;;21.10;99.90;;;;;;5052370;28;20076;-66
2022/07/01 10:54:45;;;;;;;4.00;1.13;;;20.90;99.90;;;;;;5067315;28;20108;-68
2022/07/01 10:57:20;;;;;;;2.42;0.70;;;20.60;99.90;;;;;;5071068;28;20032;-64
2022/07/01 10:59:51;;;;;;;2.40;0.90;;;20.60;99.90;;;;;;5054718;28;20044;-66
2022/07/01 11:02:23;;;;;;;3.47;0.70;;;20.80;99.90;;;;;;5070743;28;20061;-66
2022/07/01 11:04:53;;;;;;;3.20;0.90;;;20.90;99.90;;;;;;5065189;28;20045;-69
2022/07/01 11:07:19;;;;;;;9.45;1.50;;;20.80;99.90;;;;;;5052075;28;20128;-65
2022/07/01 11:09:45;;;;;;;4.95;1.20;;;20.80;99.90;;;;;;5071549;28;20084;-64
2022/07/01 11:12:15;;;;;;;3.70;0.90;;;21.10;99.90;;;;;;5071408;28;20043;-65
2022/07/01 11:14:41;;;;;;;2.95;0.70;;;21.50;99.90;;;;;;5076211;28;20041;-64
2022/07/01 11:17:08;;;;;;;5.30;0.80;;;21.70;99.90;;;;;;5074903;28;20039;-66
2022/07/01 11:19:34;;;;;;;2.60;0.63;;;21.90;99.90;;;;;;5071814;28;20098;-65
2022/07/01 11:22:00;;;;;;;2.33;0.60;;;22.10;99.90;;;;;;5074160;28;20044;-65
2022/07/01 11:24:27;;;;;;;4.45;1.00;;;22.20;99.90;;;;;;5075921;28;20429;-64
2022/07/01 11:27:05;;;;;;;4.53;0.60;;;22.10;99.90;;;;;;5074529;28;20127;-65
2022/07/01 11:29:31;;;;;;;3.63;0.90;;;21.90;99.90;;;;;;5074638;28;20076;-65
2022/07/01 11:31:56;;;;;;;1.75;0.60;;;21.70;99.90;;;;;;5075627;28;20087;-66
2022/07/01 11:34:22;;;;;;;3.47;0.70;;;21.70;99.90;;;;;;5072463;28;20070;-65
2022/07/01 11:39:35;;;;;;;5.20;0.80;;;21.50;99.90;;;;;;5074426;28;20043;-64
2022/07/01 11:42:06;;;;;;;3.83;0.90;;;21.40;99.90;;;;;;5074258;28;20041;-65
2022/07/01 11:44:40;;;;;;;5.53;1.05;;;21.30;99.90;;;;;;5057752;28;20044;-67
2022/07/01 11:47:24;;;;;;;3.75;0.70;;;21.20;99.90;;;;;;5074365;28;20044;-65
2022/07/01 11:49:51;;;;;;;3.45;0.65;;;21.20;99.90;;;;;;5075831;28;20040;-67
2022/07/01 11:52:18;;;;;;;4.85;0.98;;;21.30;99.90;;;;;;5074903;28;20036;-65
2022/07/01 11:54:49;;;;;;;3.50;1.02;;;21.30;99.90;;;;;;5074550;28;20036;-68
2022/07/01 11:57:18;;;;;;;3.47;1.05;;;21.40;99.90;;;;;;5073152;28;20064;-65
2022/07/01 11:59:47;;;;;;;3.00;0.60;;;21.70;99.90;;;;;;5073164;28;20037;-68
2022/07/01 12:02:15;;;;;;;1.67;0.70;;;22.00;99.90;;;;;;5089521;28;20051;-67
2022/07/01 12:04:42;;;;;;;3.55;0.77;;;22.00;99.90;;;;;;5073945;28;20515;-67
2022/07/01 12:07:10;;;;;;;3.45;0.85;;;22.00;99.90;;;;;;5076374;28;20047;-67
2022/07/01 12:09:37;;;;;;;3.08;0.60;;;22.10;99.90;;;;;;5095219;28;20443;-70
2022/07/01 12:12:04;;;;;;;3.97;0.88;;;22.20;99.90;;;;;;5095356;28;20541;-66
2022/07/01 12:14:33;;;;;;;3.97;1.02;;;22.30;99.90;;;;;;5077231;28;20123;-66
2022/07/01 12:17:01;;;;;;;3.05;1.25;;;22.50;99.90;;;;;;5077350;28;20085;-66
2022/07/01 12:19:40;;;;;;;3.33;0.82;;;22.70;99.90;;;;;;5095303;28;20035;-66
2022/07/01 12:22:10;;;;;;;2.33;0.60;;;23.10;99.90;;;;;;5077079;28;20504;-67
2022/07/01 12:24:36;;;;;;;4.90;1.15;;;23.30;99.90;;;;;;5094861;28;20047;-66
2022/07/01 12:27:07;;;;;;;4.07;0.90;;;23.20;99.90;;;;;;5095352;28;20040;-66
2022/07/01 12:29:54;;;;;;;3.53;1.08;;;23.00;99.90;;;;;;5076900;28;20078;-68
2022/07/01 12:32:23;;;;;;;6.28;0.95;;;22.60;99.90;;;;;;5076899;28;20036;-67
2022/07/01 12:35:03;;;;;;;4.20;1.20;;;22.40;99.90;;;;;;5071360;28;20098;-67
2022/07/01 12:37:33;;;;;;;3.17;0.90;;;22.50;99.90;;;;;;5056670;28;20037;-69
2022/07/01 12:40:21;;;;;;;4.07;0.60;;;22.50;99.90;;;;;;5074514;28;20072;-69
2022/07/01 12:42:47;;;;;;;4.68;1.15;;;22.50;99.90;;;;;;5074516;28;20405;-65
2022/07/01 12:45:15;;;;;;;4.05;1.40;;;22.40;99.90;;;;;;5056375;28;20047;-66
2022/07/01 12:47:46;;;;;;;3.22;0.50;;;22.30;99.90;;;;;;5092349;28;20520;-66
2022/07/01 12:50:21;;;;;;;4.63;0.90;;;22.30;99.90;;;;;;5076819;28;20542;-66
2022/07/01 12:53:12;;;;;;;3.35;1.05;;;22.40;99.90;;;;;;5073012;28;20561;-68
2022/07/01 12:55:43;;;;;;;5.63;0.80;;;22.40;99.90;;;;;;5040018;28;20095;-68
2022/07/01 12:58:18;;;;;;;2.58;0.93;;;22.40;98.60;;;;;;5039819;28;20039;-67
2022/07/01 13:00:46;;;;;;;2.08;0.73;;;22.30;97.40;;;;;;5039576;28;20047;-67
2022/07/01 13:03:13;;;;;;;2.67;0.60;;;22.10;98.30;;;;;;5054704;28;20049;-66
2022/07/01 13:05:40;;;;;;;2.45;0.65;;;22.10;98.40;;;;;;5076224;28;20077;-65
2022/07/01 13:08:07;;;;;;;2.05;0.50;;;22.10;98.90;;;;;;5094057;28;20111;-67
2022/07/01 13:10:33;;;;;;;2.55;0.70;;;22.10;98.00;;;;;;5094059;28;20097;-65
2022/07/01 13:12:59;;;;;;;2.60;0.95;;;22.20;98.70;;;;;;5075782;28;20044;-66
2022/07/01 13:15:25;;;;;;;6.00;0.90;;;22.30;98.30;;;;;;5058182;28;20634;-68